Time;durP1;ratioP1;P1;durP2;ratioP2;P2;SDS_P1;SDS_P2;PMS_P1;PMS_P2;Temp;Humidity;BMP_temperature;BMP_pressure;BME280_temperature;BME280_humidity;BME280_pressure;Samples;Min_cycle;Max_cycle;Signal;HPM_P1;HPM_P2
2022/05/10 00:00:06;;;;;;;6.43;5.82;;;;;;;17.71;52.00;94047.63;5023517;28;20100;-83
2022/05/10 00:02:31;;;;;;;6.93;6.03;;;;;;;17.70;52.31;94046.88;5001193;28;20535;-83
2022/05/10 00:04:57;;;;;;;6.90;6.20;;;;;;;17.72;51.92;94043.66;5003656;28;20033;-83
2022/05/10 00:07:23;;;;;;;7.22;6.13;;;;;;;17.69;52.08;94044.63;5009773;28;20034;-83
2022/05/10 00:09:49;;;;;;;8.13;6.20;;;;;;;17.71;52.13;94039.44;4995310;28;20489;-83
2022/05/10 00:12:15;;;;;;;6.60;5.82;;;;;;;17.70;51.92;94037.94;5005040;28;20103;-83
2022/05/10 00:14:41;;;;;;;7.50;5.95;;;;;;;17.70;52.06;94035.94;5019947;28;20049;-83
2022/05/10 00:17:06;;;;;;;7.03;5.70;;;;;;;17.68;51.92;94032.94;5034136;28;20068;-83
2022/05/10 00:19:32;;;;;;;8.32;6.07;;;;;;;17.69;51.74;94026.25;5024490;28;20093;-83
2022/05/10 00:21:57;;;;;;;6.28;5.68;;;;;;;17.69;51.92;94034.44;5025990;28;20405;-83
2022/05/10 00:24:23;;;;;;;7.00;5.72;;;;;;;17.69;52.00;94034.44;5010743;28;20556;-82
2022/05/10 00:26:48;;;;;;;7.43;6.07;;;;;;;17.70;52.40;94037.94;5008026;28;20036;-83
2022/05/10 00:29:14;;;;;;;6.40;5.47;;;;;;;17.67;51.79;94034.19;5000589;28;20040;-83
2022/05/10 00:31:39;;;;;;;7.47;5.82;;;;;;;17.68;52.06;94029.47;4994002;28;20030;-83
2022/05/10 00:34:05;;;;;;;6.68;5.85;;;;;;;17.67;52.17;94022.50;5009989;28;20037;-82
2022/05/10 00:36:30;;;;;;;5.80;5.20;;;;;;;17.68;51.88;94022.00;5025188;28;20049;-83
2022/05/10 00:38:56;;;;;;;6.55;5.95;;;;;;;17.67;51.98;94023.25;5007414;28;20041;-83
2022/05/10 00:41:56;;;;;;;7.15;5.60;;;;;;;17.65;51.77;94017.53;5031629;28;21189;-83
2022/05/10 00:44:23;;;;;;;;;;;;;;;17.69;51.70;94018.03;5014147;28;20063;-83
2022/05/10 00:47:07;;;;;;;6.40;5.53;;;;;;;17.68;52.06;94005.59;5023612;28;19917;-83
2022/05/10 00:49:36;;;;;;;6.32;5.30;;;;;;;17.64;51.68;94002.38;5025222;28;20037;-83
2022/05/10 00:52:14;;;;;;;6.25;5.53;;;;;;;17.63;52.12;94003.56;5018666;28;20064;-85
2022/05/10 00:55:01;;;;;;;6.30;5.47;;;;;;;17.64;51.76;94001.59;4995755;28;20029;-83
2022/05/10 00:57:48;;;;;;;6.43;5.75;;;;;;;17.63;52.00;93991.88;5026615;28;20151;-83
2022/05/10 01:00:19;;;;;;;5.90;5.30;;;;;;;17.63;51.95;93998.09;5028099;28;20124;-83
2022/05/10 01:02:57;;;;;;;7.63;5.50;;;;;;;17.64;51.58;93999.63;4985512;28;20075;-83
2022/05/10 01:05:25;;;;;;;7.28;5.38;;;;;;;17.63;51.82;93998.09;5027757;28;20061;-83
2022/05/10 01:07:59;;;;;;;6.03;5.43;;;;;;;17.63;51.80;93995.38;5040058;28;20042;-83
2022/05/10 01:10:31;;;;;;;7.15;5.88;;;;;;;17.63;51.62;93998.09;5036053;28;20409;-83
2022/05/10 01:13:08;;;;;;;6.35;5.30;;;;;;;17.64;51.29;93987.91;4997632;28;20157;-83
2022/05/10 01:15:34;;;;;;;5.68;5.13;;;;;;;17.64;51.52;93985.19;5046172;28;20086;-82
2022/05/10 01:17:59;;;;;;;6.70;5.15;;;;;;;17.63;51.93;93983.69;5009279;28;20037;-84
2022/05/10 01:20:40;;;;;;;5.63;5.00;;;;;;;17.62;51.72;93977.47;5026144;28;20037;-84
2022/05/10 01:23:24;;;;;;;;;;;;;;;17.65;51.46;93976.50;5009103;28;20041;-83
2022/05/10 01:26:04;;;;;;;5.80;4.85;;;;;;;17.63;51.56;93978.22;5009908;28;20308;-83
2022/05/10 01:28:33;;;;;;;6.03;5.18;;;;;;;17.61;51.60;93970.50;5009682;28;20046;-83
2022/05/10 01:31:04;;;;;;;6.65;5.25;;;;;;;17.61;51.75;93970.50;5009791;28;20038;-83
2022/05/10 01:33:38;;;;;;;5.60;5.00;;;;;;;17.60;51.62;93965.53;5009353;28;20038;-83
2022/05/10 01:36:24;;;;;;;7.50;5.05;;;;;;;17.60;51.60;93973.72;4996885;28;20025;-83
2022/05/10 01:39:09;;;;;;;6.30;5.05;;;;;;;17.61;51.55;93965.03;4999366;28;20530;-83
2022/05/10 01:41:57;;;;;;;5.88;5.28;;;;;;;17.61;51.92;93967.78;4990200;28;20252;-83
2022/05/10 01:44:42;;;;;;;5.43;4.93;;;;;;;17.59;51.81;93958.56;5012061;28;20445;-83
2022/05/10 01:47:29;;;;;;;4.97;4.35;;;;;;;17.58;51.32;93955.09;5025233;28;20033;-83
2022/05/10 01:50:16;;;;;;;5.35;4.85;;;;;;;17.60;51.57;93960.06;4993525;28;20042;-83
2022/05/10 01:52:47;;;;;;;4.97;4.47;;;;;;;17.61;51.67;93959.56;5041320;28;20098;-84
2022/05/10 01:55:29;;;;;;;;;;;;;;;17.62;51.38;93952.88;5046030;28;20049;-83
2022/05/10 01:57:55;;;;;;;5.50;4.97;;;;;;;17.59;51.85;93956.56;5026319;28;19964;-83
2022/05/10 02:00:22;;;;;;;5.72;4.70;;;;;;;17.58;51.59;93954.34;5008849;28;20065;-83
2022/05/10 02:02:56;;;;;;;5.60;5.00;;;;;;;17.57;51.65;93950.84;5014827;28;20064;-83
2022/05/10 02:05:39;;;;;;;5.95;5.30;;;;;;;17.58;51.77;93943.41;4997595;28;21160;-83
2022/05/10 02:08:14;;;;;;;5.85;4.88;;;;;;;17.58;51.44;93943.41;5005640;28;20069;-82
2022/05/10 02:10:41;;;;;;;5.63;4.63;;;;;;;17.58;51.25;93948.88;4998748;28;20377;-83
2022/05/10 02:13:12;;;;;;;5.82;5.22;;;;;;;17.58;51.51;93948.88;4995356;28;20048;-84
2022/05/10 02:15:40;;;;;;;;;;;;;;;17.60;51.49;93941.66;5027375;28;20464;-84
2022/05/10 02:18:17;;;;;;;5.13;4.65;;;;;;;17.59;51.48;93945.63;5020728;28;19925;-83
2022/05/10 02:20:49;;;;;;;5.13;4.63;;;;;;;17.56;51.49;93938.41;5017053;28;20544;-83
2022/05/10 02:23:20;;;;;;;5.65;4.50;;;;;;;17.56;51.60;93938.41;5024863;28;20057;-83
2022/05/10 02:25:46;;;;;;;;;;;;;;;17.59;51.23;93942.91;4993718;28;20038;-83
2022/05/10 02:28:22;;;;;;;5.50;4.40;;;;;;;17.56;51.64;93943.88;5025150;28;19925;-83
2022/05/10 02:30:47;;;;;;;6.15;5.18;;;;;;;17.54;51.59;93940.91;5025372;28;20156;-83
2022/05/10 02:33:13;;;;;;;4.50;4.10;;;;;;;17.55;51.79;93936.94;4995371;28;20034;-83
2022/05/10 02:35:47;;;;;;;5.00;4.55;;;;;;;17.55;51.21;93938.91;5003522;28;20038;-83
2022/05/10 02:38:16;;;;;;;5.45;4.30;;;;;;;17.55;51.93;93933.44;5008484;28;20410;-86
2022/05/10 02:40:42;;;;;;;5.90;4.65;;;;;;;17.55;51.57;93931.47;4993284;28;20049;-84
2022/05/10 02:43:10;;;;;;;5.32;4.78;;;;;;;17.55;51.68;93933.44;4995171;28;20041;-83
2022/05/10 02:45:36;;;;;;;5.32;4.70;;;;;;;17.56;51.42;93932.94;5005179;28;20110;-83
2022/05/10 02:48:02;;;;;;;5.63;5.13;;;;;;;17.55;51.58;93928.72;5005275;28;20129;-83
2022/05/10 02:50:33;;;;;;;5.20;4.60;;;;;;;17.55;51.33;93931.47;4997466;28;20128;-83
2022/05/10 02:52:58;;;;;;;5.75;5.18;;;;;;;17.56;51.51;93926.75;4998267;28;20483;-83
2022/05/10 02:55:40;;;;;;;4.80;4.30;;;;;;;17.56;51.39;93932.19;5017333;28;20053;-83
2022/05/10 02:58:09;;;;;;;5.60;5.00;;;;;;;17.57;51.22;93936.44;4982280;28;20041;-83
2022/05/10 03:00:34;;;;;;;4.97;4.50;;;;;;;17.56;51.46;93926.75;4988618;28;20386;-83
2022/05/10 03:03:04;;;;;;;5.78;5.07;;;;;;;17.57;51.06;93928.22;5003867;28;20029;-83
2022/05/10 03:05:31;;;;;;;5.80;5.10;;;;;;;17.55;50.91;93930.72;5013824;28;20044;-84
2022/05/10 03:07:56;;;;;;;5.43;4.82;;;;;;;17.54;51.20;93929.25;4992437;28;20033;-84
2022/05/10 03:10:22;;;;;;;6.35;4.60;;;;;;;17.56;51.59;93932.19;4992702;28;20046;-83
2022/05/10 03:12:48;;;;;;;5.65;4.80;;;;;;;17.54;51.19;93926.50;5018851;28;20033;-89
2022/05/10 03:15:13;;;;;;;4.53;4.07;;;;;;;17.54;51.51;93934.72;4998340;28;20408;-83
2022/05/10 03:17:38;;;;;;;4.50;4.00;;;;;;;17.55;51.21;93927.97;5011284;28;20042;-83
2022/05/10 03:20:04;;;;;;;4.63;4.18;;;;;;;17.53;51.39;93931.22;5011665;28;20041;-83
2022/05/10 03:22:30;;;;;;;4.47;4.07;;;;;;;17.54;51.21;93932.69;4996034;28;20424;-83
2022/05/10 03:24:55;;;;;;;4.93;4.43;;;;;;;17.54;51.09;93935.44;5011468;28;20030;-83
2022/05/10 03:27:21;;;;;;;4.95;4.45;;;;;;;17.55;51.15;93938.91;4997452;28;20045;-83
2022/05/10 03:29:46;;;;;;;4.85;4.35;;;;;;;17.52;50.93;93932.47;5010897;28;20679;-83
2022/05/10 03:32:13;;;;;;;5.28;4.78;;;;;;;17.54;51.32;93940.91;5006401;28;20046;-84
2022/05/10 03:34:57;;;;;;;5.50;4.35;;;;;;;17.52;50.71;93943.41;5000423;28;20556;-82
2022/05/10 03:37:24;;;;;;;5.07;4.38;;;;;;;17.51;50.93;93933.69;5014174;28;20044;-83
2022/05/10 03:39:50;;;;;;;8.73;4.68;;;;;;;17.52;50.87;93942.66;5012633;28;20042;-82
2022/05/10 03:42:15;;;;;;;30.35;6.40;;;;;;;17.52;50.95;93939.91;5043575;28;20034;-84
2022/05/10 03:44:40;;;;;;;25.15;5.82;;;;;;;17.62;51.29;93935.72;5019304;28;20026;-84
2022/05/10 03:47:07;;;;;;;13.30;5.72;;;;;;;17.59;51.22;93937.44;5021975;28;20045;-84
2022/05/10 03:49:33;;;;;;;13.85;5.43;;;;;;;17.58;50.62;93929.72;5012533;28;20405;-84
2022/05/10 03:51:58;;;;;;;19.67;5.85;;;;;;;17.60;50.80;93946.38;5010785;28;20042;-83
2022/05/10 03:54:24;;;;;;;8.48;4.93;;;;;;;17.67;50.78;93943.97;5021150;28;20112;-84
2022/05/10 03:56:50;;;;;;;10.60;4.88;;;;;;;17.69;50.39;93946.97;5024221;28;20393;-86
2022/05/10 03:59:17;;;;;;;8.98;4.80;;;;;;;17.76;50.48;93953.91;5041525;28;20049;-84
2022/05/10 04:01:42;;;;;;;5.82;4.03;;;;;;;17.81;50.21;93948.47;5025224;28;20042;-84
2022/05/10 04:04:08;;;;;;;8.45;4.40;;;;;;;17.85;50.35;93948.22;5039390;28;20104;-84
2022/05/10 04:06:33;;;;;;;11.55;4.43;;;;;;;17.84;50.65;93952.19;5020198;28;20378;-84
2022/05/10 04:08:59;;;;;;;8.13;4.80;;;;;;;17.84;50.51;93946.72;5014917;28;20076;-84
2022/05/10 04:11:25;;;;;;;8.38;4.55;;;;;;;17.81;50.02;93943.00;5027339;28;20040;-83
2022/05/10 04:13:50;;;;;;;9.48;4.10;;;;;;;17.87;50.08;93942.28;5026751;28;20124;-84
2022/05/10 04:16:16;;;;;;;17.95;5.20;;;;;;;17.83;50.34;93942.50;5033064;28;20037;-88
2022/05/10 04:18:42;;;;;;;11.57;4.50;;;;;;;17.84;50.29;93946.72;5008074;28;20045;-82
2022/05/10 04:21:08;;;;;;;8.80;4.88;;;;;;;17.88;49.98;93952.72;5009534;28;20164;-84
2022/05/10 04:23:34;;;;;;;12.88;5.35;;;;;;;17.87;50.04;93955.94;5018849;28;20619;-83
2022/05/10 04:26:08;;;;;;;19.98;5.53;;;;;;;17.83;50.60;93955.44;5031676;28;20049;-82
2022/05/10 04:28:34;;;;;;;21.90;5.82;;;;;;;17.88;50.62;93960.91;5009844;28;20061;-83
2022/05/10 04:30:59;;;;;;;21.17;7.05;;;;;;;17.81;49.75;93964.13;5008764;28;20045;-83
2022/05/10 04:33:25;;;;;;;9.43;6.55;;;;;;;17.75;48.74;93969.56;5044874;28;20128;-83
2022/05/10 04:35:50;;;;;;;15.55;6.95;;;;;;;17.67;48.51;93967.81;5011058;28;20037;-84
2022/05/10 04:38:16;;;;;;;25.33;10.40;;;;;;;17.60;48.23;93963.53;5005897;28;20455;-84
2022/05/10 04:43:25;;;;;;;16.38;8.25;;;;;;;17.60;48.51;93963.53;5005933;28;20072;-84
2022/05/10 04:45:51;;;;;;;9.55;6.88;;;;;;;17.54;48.16;93960.03;5005977;28;20068;-85
2022/05/10 04:48:16;;;;;;;14.73;7.22;;;;;;;17.52;48.99;93968.00;5023518;28;20058;-85
2022/05/10 04:50:42;;;;;;;19.00;7.32;;;;;;;17.49;48.64;93968.97;5036223;28;20049;-84
2022/05/10 04:53:08;;;;;;;12.35;8.10;;;;;;;17.45;48.81;93974.69;5004853;28;20041;-84
2022/05/10 04:55:34;;;;;;;26.63;9.00;;;;;;;17.36;48.93;93979.59;5009367;28;20199;-84
2022/05/10 04:57:59;;;;;;;67.30;14.27;;;;;;;17.37;49.09;93981.84;5024742;28;20568;-85
2022/05/10 05:00:26;;;;;;;41.33;13.23;;;;;;;17.32;48.47;93974.34;5014051;28;20131;-87
2022/05/10 05:02:51;;;;;;;66.25;18.20;;;;;;;17.31;48.89;93974.88;5025626;28;20037;-86
2022/05/10 05:05:17;;;;;;;52.53;15.13;;;;;;;17.31;49.00;93983.06;5008719;28;20468;-86
2022/05/10 05:07:44;;;;;;;38.78;16.13;;;;;;;17.30;49.29;93985.06;5024269;28;20041;-84
2022/05/10 05:10:10;;;;;;;44.67;17.27;;;;;;;17.32;49.61;93990.03;5004650;28;20550;-89
2022/05/10 05:12:35;;;;;;;77.50;21.27;;;;;;;17.23;49.42;93984.75;5010547;28;20048;-84
2022/05/10 05:15:01;;;;;;;40.80;19.33;;;;;;;17.27;49.18;93991.50;5005610;28;20129;-84
2022/05/10 05:17:26;;;;;;;40.90;16.58;;;;;;;17.30;49.11;93989.75;5004852;28;20038;-86
2022/05/10 05:19:52;;;;;;;42.80;17.65;;;;;;;17.28;48.92;93982.06;5026748;28;20052;-90
2022/05/10 05:22:17;;;;;;;53.33;22.77;;;;;;;17.26;49.05;93990.00;5007112;28;20037;-85
2022/05/10 05:24:43;;;;;;;59.67;24.25;;;;;;;17.26;49.03;93994.72;5029496;28;20041;-88
2022/05/10 05:27:08;;;;;;;75.40;35.50;;;;;;;17.29;49.07;93991.75;5019076;28;20087;-85
2022/05/10 05:29:34;;;;;;;66.35;25.15;;;;;;;17.27;49.62;93985.28;5013604;28;20029;-85
2022/05/10 05:32:00;;;;;;;42.15;20.83;;;;;;;17.28;49.56;93987.53;5019407;28;20068;-87
2022/05/10 05:34:26;;;;;;;33.30;14.88;;;;;;;17.34;49.94;93990.25;4991379;28;20447;-85
2022/05/10 05:39:35;;;;;;;38.75;12.32;;;;;;;17.34;51.18;93995.72;5011005;28;20672;-84
2022/05/10 05:42:01;;;;;;;49.22;17.17;;;;;;;17.32;51.45;93990.03;5006677;28;20561;-83
2022/05/10 05:44:26;;;;;;;31.10;15.07;;;;;;;17.37;51.60;93995.50;5006124;28;20076;-85
2022/05/10 05:46:52;;;;;;;41.95;14.18;;;;;;;17.33;51.91;93994.97;5015988;28;20037;-91
2022/05/10 05:49:17;;;;;;;21.30;11.43;;;;;;;17.36;51.94;93999.47;5023547;28;20097;-84
2022/05/10 05:51:42;;;;;;;22.77;10.88;;;;;;;17.33;52.78;93994.22;5006174;28;20033;-83
2022/05/10 05:54:09;;;;;;;23.48;10.95;;;;;;;17.33;52.92;93988.75;5029392;28;20038;-91
2022/05/10 05:56:35;;;;;;;26.58;11.45;;;;;;;17.35;52.85;93994.50;5007984;28;20080;-85
2022/05/10 05:59:00;;;;;;;55.28;16.23;;;;;;;17.34;52.83;93987.53;5008524;28;20042;-84
2022/05/10 06:01:26;;;;;;;27.70;12.15;;;;;;;17.40;52.58;93993.78;5020203;28;20030;-86
2022/05/10 06:03:51;;;;;;;47.88;12.43;;;;;;;17.39;52.53;93993.03;5016117;28;20488;-84
2022/05/10 06:06:17;;;;;;;51.60;14.50;;;;;;;17.44;53.06;93997.03;5021245;28;20042;-87
2022/05/10 06:08:43;;;;;;;39.22;11.98;;;;;;;17.45;52.30;93993.06;5002741;28;20460;-87
2022/05/10 06:11:11;;;;;;;47.97;12.80;;;;;;;17.52;52.06;93989.13;5022963;28;20052;-83
2022/05/10 06:13:37;;;;;;;46.83;13.05;;;;;;;17.61;51.41;93989.63;5005066;28;20038;-83
2022/05/10 06:16:06;;;;;;;40.28;14.27;;;;;;;17.70;51.64;93991.44;5013265;28;20045;-90
2022/05/10 06:18:32;;;;;;;75.25;19.52;;;;;;;17.81;50.94;93989.50;4989538;28;20454;-87
2022/05/10 06:20:57;;;;;;;57.55;17.70;;;;;;;17.87;51.07;93994.22;4974346;28;20034;-83
2022/05/10 06:23:23;;;;;;;57.45;18.35;;;;;;;17.91;50.56;93992.75;5007799;28;20093;-84
2022/05/10 06:25:48;;;;;;;66.40;19.13;;;;;;;17.91;50.69;93983.81;4990867;28;20116;-85
2022/05/10 06:28:13;;;;;;;44.15;19.45;;;;;;;17.92;50.54;93990.78;4981345;28;20050;-90
2022/05/10 06:30:39;;;;;;;53.05;19.98;;;;;;;17.94;50.47;93974.63;4966077;28;20108;-84
2022/05/10 06:33:05;;;;;;;56.47;20.38;;;;;;;17.96;50.40;93983.06;5027270;28;20123;-83
2022/05/10 06:35:30;;;;;;;56.63;20.55;;;;;;;17.96;50.48;93985.81;4993533;28;20042;-86
2022/05/10 06:40:40;;;;;;;75.88;24.10;;;;;;;17.98;50.65;93986.03;5013545;28;20052;-85
2022/05/10 06:43:05;;;;;;;82.07;26.05;;;;;;;17.97;50.49;93977.09;5020385;28;20030;-85
2022/05/10 06:45:31;;;;;;;83.57;25.88;;;;;;;18.00;50.35;93970.63;4994066;28;20042;-84
2022/05/10 06:47:56;;;;;;;84.15;25.98;;;;;;;18.00;50.35;93987.03;4991509;28;20038;-86
2022/05/10 06:50:23;;;;;;;78.72;26.17;;;;;;;18.02;50.37;93979.09;4982226;28;20108;-83
2022/05/10 06:52:50;;;;;;;77.95;27.27;;;;;;;18.07;49.92;93972.16;4995626;28;20037;-83
2022/05/10 06:55:16;;;;;;;75.35;26.35;;;;;;;18.02;50.15;93976.34;5000070;28;20046;-84
2022/05/10 06:57:42;;;;;;;59.65;26.95;;;;;;;18.06;50.38;93976.13;4991676;28;20058;-84
2022/05/10 07:00:09;;;;;;;70.70;27.60;;;;;;;18.07;50.26;93972.16;5002208;28;20107;-83
2022/05/10 07:02:35;;;;;;;80.22;29.52;;;;;;;18.11;49.66;93969.91;4991231;28;20042;-84
2022/05/10 07:05:00;;;;;;;77.93;34.03;;;;;;;18.14;50.09;93966.19;4996579;28;20037;-84
2022/05/10 07:07:27;;;;;;;93.22;41.63;;;;;;;18.16;50.07;93966.44;5012683;28;20215;-82
2022/05/10 07:09:52;;;;;;;96.10;39.70;;;;;;;18.14;49.90;93969.69;4991702;28;20044;-83
2022/05/10 07:12:18;;;;;;;104.70;42.78;;;;;;;18.12;49.80;93966.69;5009895;28;20038;-86
2022/05/10 07:14:45;;;;;;;104.35;43.05;;;;;;;18.15;50.20;93970.44;4977309;28;20053;-83
2022/05/10 07:17:12;;;;;;;105.93;44.83;;;;;;;18.15;49.95;93968.44;5028936;28;20603;-86
2022/05/10 07:19:37;;;;;;;104.68;45.70;;;;;;;18.16;50.15;93966.44;5038556;28;20437;-85
2022/05/10 07:22:03;;;;;;;114.68;45.50;;;;;;;18.21;50.23;93970.41;5019864;28;20040;-83
2022/05/10 07:24:28;;;;;;;113.32;45.95;;;;;;;18.23;50.18;93962.47;5040916;28;20124;-83
2022/05/10 07:26:54;;;;;;;96.13;45.22;;;;;;;18.25;50.00;93974.41;5024700;28;20358;-83
2022/05/10 07:29:19;;;;;;;94.07;43.42;;;;;;;18.26;49.81;93972.41;5008178;28;20055;-85
2022/05/10 07:31:45;;;;;;;101.65;44.38;;;;;;;18.25;49.94;93968.19;5023193;28;20038;-83
2022/05/10 07:34:10;;;;;;;93.45;44.08;;;;;;;18.24;49.73;93977.63;5021487;28;20038;-90
2022/05/10 07:36:36;;;;;;;110.32;50.53;;;;;;;18.24;49.95;93978.38;5020278;28;20026;-83
2022/05/10 07:39:05;;;;;;;118.70;49.58;;;;;;;18.26;49.81;93975.91;5017006;28;20034;-84
2022/05/10 07:41:31;;;;;;;113.88;48.08;;;;;;;18.27;49.80;93979.38;5009657;28;20051;-85
2022/05/10 07:43:57;;;;;;;106.65;51.40;;;;;;;18.29;50.06;93974.91;5025588;28;20034;-86
2022/05/10 07:46:22;;;;;;;138.95;55.08;;;;;;;18.34;49.64;93978.91;5012280;28;20046;-87
2022/05/10 07:48:48;;;;;;;105.28;47.85;;;;;;;18.29;49.87;93988.59;5010421;28;20056;-83
2022/05/10 07:51:13;;;;;;;114.20;51.05;;;;;;;18.29;49.96;93980.38;5028992;28;20033;-85
2022/05/10 07:53:41;;;;;;;103.97;48.70;;;;;;;18.30;49.72;93981.88;5008043;28;20030;-85
2022/05/10 07:56:06;;;;;;;107.00;50.38;;;;;;;18.28;49.86;93984.38;5013638;28;20519;-89
2022/05/10 07:58:32;;;;;;;122.47;51.88;;;;;;;18.31;49.63;93979.88;5009300;28;20061;-91
2022/05/10 08:00:59;;;;;;;111.40;46.53;;;;;;;18.32;49.62;93982.13;5004523;28;20037;-85
2022/05/10 08:03:25;;;;;;;105.95;50.40;;;;;;;18.31;49.77;93977.91;5016860;28;20193;-84
2022/05/10 08:05:51;;;;;;;115.05;51.10;;;;;;;18.32;50.07;93973.94;5013740;28;20560;-84
2022/05/10 08:08:19;;;;;;;117.97;54.30;;;;;;;18.36;49.91;93977.16;5021877;28;20481;-87
2022/05/10 08:10:46;;;;;;;94.53;49.08;;;;;;;18.33;49.62;93972.69;5018223;28;20088;-85
2022/05/10 08:13:13;;;;;;;106.75;55.30;;;;;;;18.36;49.73;93965.47;5009391;28;20041;-85
2022/05/10 08:15:39;;;;;;;102.28;54.42;;;;;;;18.35;50.02;93972.19;5012576;28;20037;-89
2022/05/10 08:18:06;;;;;;;106.93;54.15;;;;;;;18.35;49.77;93975.66;5027524;28;20048;-83
2022/05/10 08:20:31;;;;;;;103.43;51.50;;;;;;;18.37;50.02;93975.19;5023593;28;20049;-84
2022/05/10 08:22:56;;;;;;;95.40;47.03;;;;;;;18.38;50.14;93971.94;5028025;28;20037;-83
2022/05/10 08:25:22;;;;;;;93.40;50.03;;;;;;;18.37;50.12;93978.66;5027636;28;20125;-83
2022/05/10 08:27:47;;;;;;;96.75;48.45;;;;;;;18.38;50.07;93974.69;5011208;28;20052;-85
2022/05/10 08:30:13;;;;;;;93.05;46.80;;;;;;;18.39;49.86;93978.91;5010503;28;20040;-83
2022/05/10 08:32:39;;;;;;;126.03;51.70;;;;;;;18.40;50.05;93974.19;5002619;28;20041;-84
2022/05/10 08:35:06;;;;;;;125.88;54.33;;;;;;;18.44;49.70;93969.94;5004198;28;20028;-85
2022/05/10 08:37:32;;;;;;;126.97;54.88;;;;;;;18.43;50.24;93967.69;5012057;28;20085;-82
2022/05/10 08:39:58;;;;;;;169.27;66.75;;;;;;;18.45;49.69;93965.97;5023074;28;20136;-82
2022/05/10 08:42:28;;;;;;;165.25;70.65;;;;;;;18.46;49.82;93970.19;4981575;28;20045;-83
2022/05/10 08:45:05;;;;;;;168.23;75.20;;;;;;;18.45;49.90;93965.22;5001125;28;20038;-83
2022/05/10 08:47:31;;;;;;;169.25;73.95;;;;;;;18.46;49.94;93970.19;5014288;28;20037;-82
2022/05/10 08:50:00;;;;;;;156.80;75.97;;;;;;;18.43;49.59;93952.00;5010457;28;20029;-82
2022/05/10 08:52:30;;;;;;;265.55;127.15;;;;;;;18.44;49.77;93953.50;5023045;28;20026;-83
2022/05/10 08:54:56;;;;;;;202.70;98.00;;;;;;;18.44;49.79;93966.44;5002769;28;20026;-83
2022/05/10 08:57:27;;;;;;;218.57;110.28;;;;;;;18.44;49.83;93959.00;5021556;28;20331;-85
2022/05/10 09:00:12;;;;;;;238.35;116.32;;;;;;;18.44;50.03;93966.44;5023998;28;20052;-83
2022/05/10 09:02:51;;;;;;;235.45;120.07;;;;;;;18.43;50.16;93959.47;4998935;28;20311;-84
2022/05/10 09:05:28;;;;;;;241.88;130.18;;;;;;;18.46;49.88;93950.28;5013321;28;20038;-84
2022/05/10 09:08:25;;;;;;;253.70;124.22;;;;;;;18.46;50.10;93958.50;5023630;28;20072;-82
2022/05/10 09:10:52;;;;;;;230.60;121.30;;;;;;;18.48;50.00;93961.47;5034236;28;20124;-83
2022/05/10 09:13:18;;;;;;;242.95;121.78;;;;;;;18.50;49.75;93953.53;5003787;28;20033;-83
2022/05/10 09:15:54;;;;;;;228.52;119.47;;;;;;;18.49;49.98;93955.50;5003036;28;20025;-83
2022/05/10 09:18:21;;;;;;;230.73;112.57;;;;;;;18.48;50.08;93951.28;5030502;28;20049;-82
2022/05/10 09:20:56;;;;;;;218.85;113.30;;;;;;;18.49;49.82;93952.03;5036033;28;20034;-85
2022/05/10 09:23:40;;;;;;;230.45;119.35;;;;;;;18.50;49.61;93951.53;5009539;28;20340;-86
2022/05/10 09:26:06;;;;;;;246.88;117.38;;;;;;;18.50;50.05;93950.78;5032244;28;20528;-82
2022/05/10 09:28:55;;;;;;;213.98;108.30;;;;;;;18.49;50.05;93943.81;5014081;28;20041;-82
2022/05/10 09:37:32;;;;;;;236.73;109.95;;;;;;;18.48;50.00;93945.81;5002708;28;20104;-83
2022/05/10 09:39:57;;;;;;;228.02;104.00;;;;;;;18.53;50.24;93940.81;5023839;28;20033;-82
2022/05/10 09:42:26;;;;;;;202.23;99.25;;;;;;;18.52;49.75;93933.84;5023751;28;20099;-82
2022/05/10 09:45:05;;;;;;;202.73;100.60;;;;;;;18.52;49.93;93944.81;5014650;28;20038;-82
2022/05/10 09:47:30;;;;;;;191.85;94.32;;;;;;;18.54;50.07;93936.84;5041749;28;20110;-82
2022/05/10 09:50:10;;;;;;;206.93;96.60;;;;;;;18.50;49.96;93946.06;5010043;28;20480;-82
2022/05/10 09:52:35;;;;;;;213.30;94.07;;;;;;;18.55;50.28;93941.81;5033951;28;20037;-84
2022/05/10 09:55:01;;;;;;;207.48;92.22;;;;;;;18.56;49.99;93940.59;5012679;28;20025;-84
2022/05/10 09:57:29;;;;;;;175.48;89.03;;;;;;;18.53;50.14;93933.38;5012164;28;20037;-84
2022/05/10 09:59:55;;;;;;;183.95;89.20;;;;;;;18.57;50.15;93944.06;5009260;28;20041;-84
2022/05/10 10:02:30;;;;;;;170.70;84.30;;;;;;;18.55;50.33;93941.06;5005481;28;20034;-82
2022/05/10 10:04:56;;;;;;;172.18;82.28;;;;;;;18.54;50.16;93934.09;5013540;28;20026;-83
2022/05/10 10:07:25;;;;;;;174.57;86.00;;;;;;;18.53;50.11;93936.09;5032583;28;20311;-82
2022/05/10 10:09:55;;;;;;;160.85;83.13;;;;;;;18.54;50.00;93934.84;5010747;28;20049;-82
2022/05/10 10:12:33;;;;;;;168.75;83.55;;;;;;;18.56;50.16;93928.88;5021764;28;20076;-87
2022/05/10 10:14:59;;;;;;;158.63;79.57;;;;;;;18.55;50.35;93928.13;5025507;28;20084;-88
2022/05/10 10:17:29;;;;;;;147.80;77.00;;;;;;;18.56;50.13;93932.38;5048045;28;20041;-85
2022/05/10 10:19:57;;;;;;;213.30;85.50;;;;;;;18.57;49.89;93928.38;5039654;28;20028;-87
2022/05/10 10:22:22;;;;;;;284.38;97.07;;;;;;;18.58;50.13;93929.88;5047476;28;20045;-87
2022/05/10 10:25:02;;;;;;;190.77;78.63;;;;;;;18.54;50.44;93934.84;5033474;28;20046;-84
2022/05/10 10:27:34;;;;;;;266.30;127.60;;;;;;;18.57;50.13;93930.38;5031518;28;20568;-86
2022/05/10 10:30:23;;;;;;;290.95;178.77;;;;;;;18.54;50.00;93923.16;5012245;28;20034;-87
2022/05/10 10:32:53;;;;;;;280.05;183.35;;;;;;;18.55;50.28;93933.63;5014365;28;20056;-83
2022/05/10 10:35:29;;;;;;;173.33;88.50;;;;;;;18.55;50.18;93919.19;5008845;28;20036;-84
2022/05/10 10:38:22;;;;;;;130.10;65.47;;;;;;;18.55;50.28;93917.19;5011836;28;20038;-82
2022/05/10 10:41:10;;;;;;;90.45;50.35;;;;;;;18.56;50.30;93912.44;5006367;28;20034;-80
2022/05/10 10:43:54;;;;;;;90.95;50.22;;;;;;;18.58;50.14;93912.69;5027749;28;20034;-81
2022/05/10 10:46:25;;;;;;;89.25;48.88;;;;;;;18.56;49.94;93902.25;5039875;28;20450;-84
2022/05/10 10:48:56;;;;;;;103.10;56.95;;;;;;;18.57;49.90;93914.69;5000421;28;20056;-83
2022/05/10 10:51:23;;;;;;;;;;;;;;;18.55;49.95;93908.22;5022329;28;20049;-83
2022/05/10 10:53:48;;;;;;;101.45;52.55;;;;;;;18.54;49.98;93904.00;5039780;28;19976;-83
2022/05/10 10:56:29;;;;;;;129.00;65.80;;;;;;;18.54;50.11;93898.50;5024483;28;20488;-83
2022/05/10 10:59:06;;;;;;;;;;;;;;;18.54;49.96;93898.50;4993895;28;20056;-84
2022/05/10 11:01:56;;;;;;;117.20;57.65;;;;;;;18.56;50.04;93901.50;5021432;28;20051;-83
2022/05/10 11:04:40;;;;;;;129.43;55.08;;;;;;;18.57;50.00;93889.31;5012482;28;20034;-84
2022/05/10 11:07:34;;;;;;;131.65;57.58;;;;;;;18.55;50.10;93895.28;5024540;28;20052;-84
2022/05/10 11:10:03;;;;;;;102.57;52.45;;;;;;;18.58;49.86;93901.75;5022058;28;20069;-83
2022/05/10 11:12:48;;;;;;;106.95;52.30;;;;;;;18.55;50.13;93898.03;5014381;28;20037;-83
2022/05/10 11:15:31;;;;;;;92.80;46.58;;;;;;;18.59;49.93;93895.03;5027319;28;20033;-85
2022/05/10 11:18:11;;;;;;;100.28;51.72;;;;;;;18.58;49.95;93896.28;5032182;28;20048;-89
2022/05/10 11:20:46;;;;;;;97.32;51.95;;;;;;;18.60;49.98;93902.03;5035988;28;20049;-90
2022/05/10 11:23:19;;;;;;;88.68;47.28;;;;;;;18.59;50.07;93890.34;5021769;28;20041;-89
2022/05/10 11:26:02;;;;;;;89.63;43.67;;;;;;;18.58;49.80;93888.81;5012121;28;20099;-83
2022/05/10 11:28:49;;;;;;;88.78;43.83;;;;;;;18.62;50.02;93872.16;5022233;28;20037;-90
2022/05/10 11:31:23;;;;;;;84.20;40.30;;;;;;;18.63;49.79;93882.59;5034762;28;20044;-81
2022/05/10 11:33:49;;;;;;;87.22;46.25;;;;;;;18.65;49.73;93879.34;5030204;28;20041;-87
2022/05/10 11:36:34;;;;;;;84.13;46.67;;;;;;;18.65;49.84;93879.34;5027843;28;20213;-88
2022/05/10 11:39:21;;;;;;;89.05;46.65;;;;;;;18.64;49.74;93880.59;5044703;28;20120;-90
2022/05/10 11:41:58;;;;;;;90.43;46.00;;;;;;;18.65;50.01;93880.09;5022616;28;20567;-80
2022/05/10 11:44:45;;;;;;;82.65;44.28;;;;;;;18.64;49.84;93872.38;5026470;28;20049;-81
2022/05/10 11:47:26;;;;;;;81.07;45.60;;;;;;;18.65;50.34;93874.63;5016281;28;20064;-85